Mardan Weather



Mardan's Current Weather

Temprature 40o haze

haze

Rain: 0 %

Min Temprature40o
Max Temprature40o
Humidity23
Wind Speed3.1 m/h
Sun Rise05:01:33
Sun Set19:27:20
Current Time: 26-Jun-2019 15:32:39
Lat/Lon: 34.19, 72.05




Mardan's Geo Location



Mardan's Weather Forecast

Time Overall Temp Min Temp Max Temp Humidity Wind Speed Rain
26-Jun-2019 (Wed)
17:00:00 clear sky 39.640 37.850 39.640 15 2.99 m/h 0 %
20:00:00 clear sky 34.090 32.747 34.090 20 1.07 m/h 0 %
23:00:00 clear sky 31.740 30.840 31.740 22 1.47 m/h 0 %
27-Jun-2019 (Thu)
02:00:00 clear sky 29.130 28.679 29.130 26 3.73 m/h 0 %
05:00:00 clear sky 27.165 27.165 27.165 27 3.58 m/h 0 %
08:00:00 light rain 32.150 32.150 32.150 22 1.75 m/h 19 %
11:00:00 clear sky 37.174 37.174 37.174 16 3.25 m/h 0 %
14:00:00 clear sky 39.250 39.250 39.250 13 2.93 m/h 0 %
17:00:00 clear sky 39.480 39.480 39.480 11 2.24 m/h 0 %
20:00:00 clear sky 33.494 33.494 33.494 17 0.73 m/h 0 %
23:00:00 clear sky 29.635 29.635 29.635 27 4.92 m/h 0 %
28-Jun-2019 (Fri)
02:00:00 clear sky 28.028 28.028 28.028 27 4.29 m/h 0 %
05:00:00 clear sky 26.928 26.928 26.928 26 3.46 m/h 0 %
08:00:00 clear sky 32.669 32.669 32.669 20 1.5 m/h 0 %
11:00:00 clear sky 38.225 38.225 38.225 14 2.27 m/h 0 %
14:00:00 clear sky 40.431 40.431 40.431 10 2.93 m/h 0 %
17:00:00 clear sky 40.350 40.350 40.350 10 1.9 m/h 0 %
20:00:00 clear sky 34.850 34.850 34.850 14 1.16 m/h 0 %
23:00:00 clear sky 32.872 32.872 32.872 16 2.77 m/h 0 %
29-Jun-2019 (Sat)
02:00:00 clear sky 29.872 29.872 29.872 21 4.67 m/h 0 %
05:00:00 clear sky 28.439 28.439 28.439 22 3.46 m/h 0 %
08:00:00 clear sky 34.437 34.437 34.437 17 1.54 m/h 0 %
11:00:00 clear sky 39.450 39.450 39.450 12 2.9 m/h 0 %
14:00:00 clear sky 42.150 42.150 42.150 10 3.95 m/h 0 %
17:00:00 clear sky 41.791 41.791 41.791 11 3.69 m/h 0 %
20:00:00 broken clouds 34.450 34.450 34.450 20 3.95 m/h 0 %
23:00:00 scattered clouds 31.650 31.650 31.650 24 3.16 m/h 0 %
30-Jun-2019 (Sun)
02:00:00 overcast clouds 29.906 29.906 29.906 26 3.56 m/h 0 %
05:00:00 broken clouds 28.522 28.522 28.522 25 2.59 m/h 0 %
08:00:00 clear sky 34.822 34.822 34.822 18 2.54 m/h 0 %
11:00:00 clear sky 41.218 41.218 41.218 12 1.25 m/h 0 %
14:00:00 clear sky 43.009 43.009 43.009 10 3.32 m/h 0 %
17:00:00 clear sky 43.050 43.050 43.050 10 3.5 m/h 0 %
20:00:00 clear sky 36.250 36.250 36.250 15 0.96 m/h 0 %
23:00:00 clear sky 33.550 33.550 33.550 20 4.46 m/h 0 %
01-Jul-2019 (Mon)
02:00:00 light rain 30.650 30.650 30.650 26 3.32 m/h 6 %
05:00:00 light rain 29.835 29.835 29.835 24 3.66 m/h 6 %
08:00:00 clear sky 35.850 35.850 35.850 18 1.59 m/h 0 %
11:00:00 clear sky 40.750 40.750 40.750 14 3.12 m/h 0 %
14:00:00 clear sky 43.350 43.350 43.350 11 3.17 m/h 0 %

Famous Cities (60)